Time;durP1;ratioP1;P1;durP2;ratioP2;P2;SDS_P1;SDS_P2;PMS_P1;PMS_P2;Temp;Humidity;BMP_temperature;BMP_pressure;BME280_temperature;BME280_humidity;BME280_pressure;Samples;Min_cycle;Max_cycle;Signal;HPM_P1;HPM_P2
2023/10/23 00:01:40;;;;;;;;;;;;;;;11.17;91.51;100718.48;106004;1256;61270;-74
2023/10/23 00:04:06;;;;;;;;;;;;;;;11.17;91.59;100720.06;105922;1254;124695;-75
2023/10/23 00:06:33;;;;;;;;;;;;;;;11.18;91.58;100727.27;105891;1254;72720;-75
2023/10/23 00:09:00;;;;;;;;;;;;;;;11.19;91.70;100723.77;105840;1254;124953;-75
2023/10/23 00:11:28;;;;;;;;;;;;;;;11.20;91.78;100725.73;105992;1257;61294;-74
2023/10/23 00:13:54;;;;;;;;;;;;;;;11.22;91.86;100725.60;105963;1254;75242;-75
2023/10/23 00:16:21;;;;;;;;;;;;;;;11.23;91.81;100720.00;105917;1257;125207;-74
2023/10/23 00:18:52;;;;;;;;;;;;;;;11.25;91.82;100726.38;105990;1258;72725;-74
2023/10/23 00:21:18;;;;;;;;;;;;;;;11.28;91.83;100728.02;105950;1254;124741;-74
2023/10/23 00:23:45;;;;;;;;;;;;;;;11.29;91.85;100734.19;106097;1253;61357;-74
2023/10/23 00:26:11;;;;;;;;;;;;;;;11.29;91.81;100739.30;105919;1254;125151;-74
2023/10/23 00:28:38;;;;;;;;;;;;;;;11.30;91.81;100738.44;105952;1254;61234;-74
2023/10/23 00:31:04;;;;;;;;;;;;;;;11.30;91.73;100744.41;105939;1254;61159;-74
2023/10/23 00:33:31;;;;;;;;;;;;;;;11.29;91.79;100746.84;105825;1254;124867;-74
2023/10/23 00:35:57;;;;;;;;;;;;;;;11.30;91.75;100751.77;105961;1253;61233;-74
2023/10/23 00:38:24;;;;;;;;;;;;;;;11.31;91.75;100752.15;105829;1256;125054;-76
2023/10/23 00:40:50;;;;;;;;;;;;;;;11.34;91.83;100759.06;105970;1254;59615;-74
2023/10/23 00:43:17;;;;;;;;;;;;;;;11.37;91.99;100764.58;105871;1256;61283;-74
2023/10/23 00:45:51;;;;;;;;;;;;;;;11.40;92.07;100768.88;105885;1257;124734;-75
2023/10/23 00:48:20;;;;;;;;;;;;;;;11.46;92.02;100769.00;105879;1254;61430;-74
2023/10/23 00:50:47;;;;;;;;;;;;;;;11.51;92.05;100769.27;105876;1257;125108;-75
2023/10/23 00:53:13;;;;;;;;;;;;;;;11.56;91.94;100767.98;105995;1256;65222;-75
2023/10/23 00:55:40;;;;;;;;;;;;;;;11.61;91.84;100772.30;105920;1255;71643;-75
2023/10/23 00:58:07;;;;;;;;;;;;;;;11.64;91.62;100776.25;105798;1256;125515;-75
2023/10/23 01:00:33;;;;;;;;;;;;;;;11.70;91.63;100777.93;105888;1254;61263;-74
2023/10/23 01:03:00;;;;;;;;;;;;;;;11.74;91.48;100776.09;105993;1254;124724;-76
2023/10/23 01:05:27;;;;;;;;;;;;;;;11.77;91.23;100780.52;105945;1255;66140;-76
2023/10/23 01:07:54;;;;;;;;;;;;;;;11.79;91.12;100782.00;105744;1254;72508;-75
2023/10/23 01:10:21;;;;;;;;;;;;;;;11.82;90.94;100788.92;105807;1256;124720;-73
2023/10/23 01:12:48;;;;;;;;;;;;;;;11.84;90.77;100788.77;105880;1254;61319;-73
2023/10/23 01:15:14;;;;;;;;;;;;;;;11.85;90.61;100790.73;105912;1257;125476;-76
2023/10/23 01:17:41;;;;;;;;;;;;;;;11.85;90.39;100784.93;106114;1258;61350;-74
2023/10/23 01:20:08;;;;;;;;;;;;;;;11.80;90.00;100786.24;106016;1253;125886;-74
2023/10/23 01:22:34;;;;;;;;;;;;;;;11.70;89.55;100790.24;106068;1257;61232;-74
2023/10/23 01:25:01;;;;;;;;;;;;;;;11.61;89.58;100786.00;106072;1254;61306;-74
2023/10/23 01:27:28;;;;;;;;;;;;;;;11.53;89.41;100787.95;105828;1258;124813;-75
2023/10/23 01:29:54;;;;;;;;;;;;;;;11.47;89.53;100791.16;105971;1257;65290;-74
2023/10/23 01:32:21;;;;;;;;;;;;;;;11.43;89.54;100798.80;105992;1258;124906;-74
2023/10/23 01:34:47;;;;;;;;;;;;;;;11.35;89.47;100798.45;105984;1254;61295;-74
2023/10/23 01:37:14;;;;;;;;;;;;;;;11.27;89.32;100794.94;105974;1253;61337;-75
2023/10/23 01:39:41;;;;;;;;;;;;;;;11.20;89.41;100793.18;105884;1258;125259;-74
2023/10/23 01:42:07;;;;;;;;;;;;;;;11.14;89.35;100798.14;105971;1254;64998;-74
2023/10/23 01:44:34;;;;;;;;;;;;;;;11.08;89.43;100797.84;105761;1258;125012;-74
2023/10/23 01:47:00;;;;;;;;;;;;;;;11.05;89.53;100796.52;106037;1257;61248;-74
2023/10/23 01:49:27;;;;;;;;;;;;;;;11.02;89.72;100796.11;106020;1255;61215;-74
2023/10/23 01:51:54;;;;;;;;;;;;;;;11.02;89.93;100796.46;105863;1254;125692;-74
2023/10/23 01:54:21;;;;;;;;;;;;;;;11.04;90.02;100797.20;105960;1255;64607;-74
2023/10/23 01:56:48;;;;;;;;;;;;;;;11.06;90.24;100795.85;105854;1254;126514;-74
2023/10/23 01:59:14;;;;;;;;;;;;;;;11.09;90.37;100795.73;105947;1255;59529;-74
2023/10/23 02:01:41;;;;;;;;;;;;;;;11.12;90.35;100795.80;105936;1258;61882;-73
2023/10/23 02:04:07;;;;;;;;;;;;;;;11.15;90.26;100798.69;105912;1257;124909;-73
2023/10/23 02:06:34;;;;;;;;;;;;;;;11.18;90.27;100798.94;106042;1257;64490;-74
2023/10/23 02:09:01;;;;;;;;;;;;;;;11.20;90.32;100799.88;105961;1256;124909;-74
2023/10/23 02:11:27;;;;;;;;;;;;;;;11.22;90.25;100801.85;106012;1256;61281;-74
2023/10/23 02:13:54;;;;;;;;;;;;;;;11.23;90.22;100797.48;106014;1254;61274;-76
2023/10/23 02:16:20;;;;;;;;;;;;;;;11.26;90.22;100799.81;105939;1254;124768;-74
2023/10/23 02:18:47;;;;;;;;;;;;;;;11.28;90.18;100797.42;105985;1254;66264;-76
2023/10/23 02:21:14;;;;;;;;;;;;;;;11.31;90.25;100796.77;105928;1257;125370;-79
2023/10/23 02:23:40;;;;;;;;;;;;;;;11.32;90.04;100798.20;105975;1254;61356;-74
2023/10/23 02:26:07;;;;;;;;;;;;;;;11.33;90.08;100803.30;105936;1256;124943;-75
2023/10/23 02:28:33;;;;;;;;;;;;;;;11.33;89.94;100804.37;106036;1255;61241;-75
2023/10/23 02:31:03;;;;;;;;;;;;;;;11.34;89.96;100805.80;106058;1254;66518;-76
2023/10/23 02:33:29;;;;;;;;;;;;;;;11.34;89.84;100806.35;105962;1254;124751;-73
2023/10/23 02:35:56;;;;;;;;;;;;;;;11.34;89.89;100812.48;105950;1257;61254;-75
2023/10/23 02:38:22;;;;;;;;;;;;;;;11.33;89.77;100813.16;105914;1258;127305;-75
2023/10/23 02:40:52;;;;;;;;;;;;;;;11.33;89.87;100814.22;105969;1256;61200;-75
2023/10/23 02:43:19;;;;;;;;;;;;;;;11.35;89.80;100813.20;105914;1255;64960;-74
2023/10/23 02:45:46;;;;;;;;;;;;;;;11.34;89.85;100815.83;105852;1258;125186;-75
2023/10/23 02:48:13;;;;;;;;;;;;;;;11.33;89.82;100814.04;106012;1256;61181;-73
2023/10/23 02:50:39;;;;;;;;;;;;;;;11.33;89.76;100814.02;105939;1254;125607;-74
2023/10/23 02:53:06;;;;;;;;;;;;;;;11.31;89.72;100813.81;105975;1254;61258;-74
2023/10/23 02:55:33;;;;;;;;;;;;;;;11.29;89.71;100814.13;106063;1256;66361;-75
2023/10/23 02:57:59;;;;;;;;;;;;;;;11.28;89.73;100813.05;105888;1254;124880;-74
2023/10/23 03:00:27;;;;;;;;;;;;;;;11.28;89.75;100814.83;107946;1257;65722;-74
2023/10/23 03:02:53;;;;;;;;;;;;;;;11.27;89.68;100811.98;105928;1258;124753;-74
2023/10/23 03:05:20;;;;;;;;;;;;;;;11.27;89.65;100811.61;106022;1255;74413;-74
2023/10/23 03:07:47;;;;;;;;;;;;;;;11.26;89.72;100811.61;109299;1256;66252;-74
2023/10/23 03:10:14;;;;;;;;;;;;;;;11.25;89.72;100812.81;109051;1254;124983;-74
2023/10/23 03:12:41;;;;;;;;;;;;;;;11.24;89.64;100811.56;107498;1254;61228;-74
2023/10/23 03:15:08;;;;;;;;;;;;;;;11.25;89.79;100812.10;106015;1254;124743;-74
2023/10/23 03:17:34;;;;;;;;;;;;;;;11.25;89.81;100810.18;106107;1258;73750;-75
2023/10/23 03:20:01;;;;;;;;;;;;;;;11.27;89.79;100817.94;105974;1257;63666;-75
2023/10/23 03:22:28;;;;;;;;;;;;;;;11.27;89.71;100815.48;106335;1256;71555;-75
2023/10/23 03:24:55;;;;;;;;;;;;;;;11.26;89.72;100816.16;105943;1256;61317;-75
2023/10/23 03:27:21;;;;;;;;;;;;;;;11.25;89.75;100815.63;105914;1254;125228;-75
2023/10/23 03:29:48;;;;;;;;;;;;;;;11.24;89.72;100814.89;105994;1257;75267;-74
2023/10/23 03:32:14;;;;;;;;;;;;;;;11.23;89.76;100818.73;105980;1256;125049;-75
2023/10/23 03:34:41;;;;;;;;;;;;;;;11.23;89.84;100819.79;106000;1254;61382;-75
2023/10/23 03:37:07;;;;;;;;;;;;;;;11.23;89.77;100828.39;105904;1254;61290;-81
2023/10/23 03:39:34;;;;;;;;;;;;;;;11.22;89.86;100822.23;105951;1256;126411;-80
2023/10/23 03:42:01;;;;;;;;;;;;;;;11.21;89.84;100821.15;106040;1254;74591;-80
2023/10/23 03:44:27;;;;;;;;;;;;;;;11.20;89.71;100828.84;106045;1258;125093;-79
2023/10/23 03:46:54;;;;;;;;;;;;;;;11.14;89.54;100835.53;106143;1256;72684;-80
2023/10/23 03:49:20;;;;;;;;;;;;;;;11.05;89.33;100837.61;106082;1256;61381;-80
2023/10/23 03:51:47;;;;;;;;;;;;;;;10.93;88.99;100846.46;105986;1254;124841;-80
2023/10/23 03:54:13;;;;;;;;;;;;;;;10.80;88.78;100851.05;106087;1256;74675;-83
2023/10/23 03:56:40;;;;;;;;;;;;;;;10.66;88.78;100848.94;105916;1256;125527;-82
2023/10/23 03:59:06;;;;;;;;;;;;;;;10.52;88.66;100847.86;105967;1257;70914;-83
2023/10/23 04:01:33;;;;;;;;;;;;;;;10.39;88.70;100857.85;106026;1253;61181;-84
2023/10/23 04:04:00;;;;;;;;;;;;;;;10.24;88.73;100860.58;105949;1254;125576;-82
2023/10/23 04:06:26;;;;;;;;;;;;;;;10.12;88.85;100859.00;106090;1256;74578;-82
2023/10/23 04:08:53;;;;;;;;;;;;;;;10.01;89.09;100859.58;106034;1256;125172;-82
2023/10/23 04:11:20;;;;;;;;;;;;;;;9.91;89.23;100862.61;106034;1255;72703;-77
2023/10/23 04:13:47;;;;;;;;;;;;;;;9.83;89.46;100862.89;106122;1253;62003;-76
2023/10/23 04:16:15;;;;;;;;;;;;;;;9.75;89.51;100865.64;105749;1256;125113;-76
2023/10/23 04:18:43;;;;;;;;;;;;;;;9.67;89.60;100872.23;105949;1256;72749;-76
2023/10/23 04:21:11;;;;;;;;;;;;;;;9.60;89.75;100876.21;105748;1256;125639;-76
2023/10/23 04:23:38;;;;;;;;;;;;;;;9.53;89.83;100880.21;105914;1255;71320;-76
2023/10/23 04:26:05;;;;;;;;;;;;;;;9.47;90.03;100881.94;105815;1258;124746;-76
2023/10/23 04:28:32;;;;;;;;;;;;;;;9.43;90.22;100888.29;106763;1260;61215;-76
2023/10/23 04:30:58;;;;;;;;;;;;;;;9.38;90.33;100888.13;105923;1258;74682;-76
2023/10/23 04:33:25;;;;;;;;;;;;;;;9.34;90.34;100888.36;105640;1256;124649;-76
2023/10/23 04:35:52;;;;;;;;;;;;;;;9.30;90.61;100888.93;105904;1258;71200;-78
2023/10/23 04:38:19;;;;;;;;;;;;;;;9.26;90.54;100886.88;106488;1254;124761;-79
2023/10/23 04:40:45;;;;;;;;;;;;;;;9.21;90.43;100893.55;106467;1258;61250;-75
2023/10/23 04:43:12;;;;;;;;;;;;;;;9.16;90.43;100887.08;105919;1256;72479;-78
2023/10/23 04:45:39;;;;;;;;;;;;;;;9.10;90.45;100883.91;106086;1258;125271;-74
2023/10/23 04:48:05;;;;;;;;;;;;;;;9.04;90.41;100881.79;105884;1258;72683;-74
2023/10/23 04:50:36;;;;;;;;;;;;;;;8.99;90.53;100884.41;105819;1254;125154;-75
2023/10/23 04:53:03;;;;;;;;;;;;;;;8.93;90.57;100890.52;105817;1256;61144;-75
2023/10/23 04:55:35;;;;;;;;;;;;;;;8.89;90.75;100889.70;106013;1259;73431;-77
2023/10/23 04:58:02;;;;;;;;;;;;;;;8.86;90.78;100891.87;109033;1254;124964;-77
2023/10/23 05:00:29;;;;;;;;;;;;;;;8.83;90.91;100893.86;106489;1256;72708;-76
2023/10/23 05:02:55;;;;;;;;;;;;;;;8.84;91.08;100901.77;105925;1256;125056;-77
2023/10/23 05:05:22;;;;;;;;;;;;;;;8.87;91.35;100910.27;106606;1256;60139;-75
2023/10/23 05:07:49;;;;;;;;;;;;;;;8.92;91.57;100912.70;106011;1254;74686;-82
2023/10/23 05:10:15;;;;;;;;;;;;;;;8.94;91.59;100921.37;105949;1258;125160;-76
2023/10/23 05:12:42;;;;;;;;;;;;;;;8.96;91.55;100924.92;106050;1258;71768;-75
2023/10/23 05:15:09;;;;;;;;;;;;;;;8.98;91.59;100929.56;106037;1258;125394;-75
2023/10/23 05:17:35;;;;;;;;;;;;;;;9.00;91.60;100935.58;106106;1256;61145;-82
2023/10/23 05:20:04;;;;;;;;;;;;;;;9.02;91.57;100938.95;106072;1256;73101;-76
2023/10/23 05:22:32;;;;;;;;;;;;;;;9.03;91.52;100948.08;106159;1254;65036;-76
2023/10/23 05:24:58;;;;;;;;;;;;;;;9.05;91.69;100949.02;105999;1258;72720;-77
2023/10/23 05:27:25;;;;;;;;;;;;;;;9.10;91.83;100949.91;105900;1256;124619;-76
2023/10/23 05:29:52;;;;;;;;;;;;;;;9.15;91.98;100953.77;106110;1258;61186;-76
2023/10/23 05:32:19;;;;;;;;;;;;;;;9.21;92.06;100954.13;106084;1261;124880;-76
2023/10/23 05:34:46;;;;;;;;;;;;;;;9.26;91.93;100960.95;106451;1256;65679;-76
2023/10/23 05:37:12;;;;;;;;;;;;;;;9.29;91.90;100965.09;106332;1258;72863;-76
2023/10/23 05:39:39;;;;;;;;;;;;;;;9.36;91.93;100972.13;106274;1256;125275;-76
2023/10/23 05:42:05;;;;;;;;;;;;;;;9.39;91.85;100972.77;106321;1258;61238;-75
2023/10/23 05:44:32;;;;;;;;;;;;;;;9.42;91.67;100973.02;105999;1254;125302;-75
2023/10/23 05:49:57;;;;;;;;;;;;;;;9.43;91.40;100976.40;109008;1254;72750;-76
2023/10/23 05:52:23;;;;;;;;;;;;;;;9.42;91.21;100981.12;109061;1254;124530;-76
2023/10/23 05:54:50;;;;;;;;;;;;;;;9.40;91.11;100986.98;109132;1254;59067;-76
2023/10/23 05:57:16;;;;;;;;;;;;;;;9.37;90.83;100988.80;109004;1254;124669;-76
2023/10/23 05:59:43;;;;;;;;;;;;;;;9.33;90.74;100988.86;109105;1254;65019;-76
2023/10/23 06:02:09;;;;;;;;;;;;;;;9.30;90.66;100993.14;108818;1256;124963;-76
2023/10/23 06:04:36;;;;;;;;;;;;;;;9.27;90.48;100991.65;107289;1256;61353;-75
2023/10/23 06:07:02;;;;;;;;;;;;;;;9.24;90.40;100995.55;105989;1254;61153;-75
2023/10/23 06:09:29;;;;;;;;;;;;;;;9.20;90.38;100994.54;105963;1254;124551;-76
2023/10/23 06:11:56;;;;;;;;;;;;;;;9.16;90.38;101004.90;106102;1256;66293;-77
2023/10/23 06:14:22;;;;;;;;;;;;;;;9.13;90.42;101002.86;105969;1258;124736;-74
2023/10/23 06:16:49;;;;;;;;;;;;;;;9.12;90.48;101011.42;106157;1255;61367;-77
2023/10/23 06:19:16;;;;;;;;;;;;;;;9.11;90.58;101018.22;106102;1260;61277;-74
2023/10/23 06:21:43;;;;;;;;;;;;;;;9.12;90.67;101017.89;105935;1258;125315;-75
2023/10/23 06:24:10;;;;;;;;;;;;;;;9.12;90.73;101021.43;105757;1256;65256;-74
2023/10/23 06:26:37;;;;;;;;;;;;;;;9.12;90.65;101021.91;105821;1257;125072;-75
2023/10/23 06:29:03;;;;;;;;;;;;;;;9.09;90.61;101023.23;105925;1256;61270;-76
2023/10/23 06:31:30;;;;;;;;;;;;;;;9.06;90.61;101022.06;105878;1256;61397;-75
2023/10/23 06:33:56;;;;;;;;;;;;;;;9.03;90.59;101023.02;105778;1258;124597;-75
2023/10/23 06:36:23;;;;;;;;;;;;;;;9.00;90.49;101020.79;105853;1258;64795;-75
2023/10/23 06:38:50;;;;;;;;;;;;;;;8.95;90.40;101021.69;105726;1254;124757;-76
2023/10/23 06:41:16;;;;;;;;;;;;;;;8.92;90.42;101020.86;105785;1256;59568;-75
2023/10/23 06:43:43;;;;;;;;;;;;;;;8.90;90.45;101026.39;105923;1258;61286;-74
2023/10/23 06:46:09;;;;;;;;;;;;;;;8.87;90.59;101025.44;105796;1258;124688;-76
2023/10/23 06:48:36;;;;;;;;;;;;;;;8.87;90.61;101025.23;105873;1258;64986;-76
2023/10/23 06:51:03;;;;;;;;;;;;;;;8.90;90.73;101026.23;105757;1258;124633;-75
2023/10/23 06:53:30;;;;;;;;;;;;;;;8.93;90.84;101027.04;105897;1256;61258;-75
2023/10/23 06:55:56;;;;;;;;;;;;;;;8.96;90.91;101028.90;105888;1261;61366;-75
2023/10/23 06:58:23;;;;;;;;;;;;;;;9.01;91.10;101026.95;105719;1256;124661;-75
2023/10/23 07:00:49;;;;;;;;;;;;;;;9.06;91.23;101025.39;105877;1256;70154;-75
2023/10/23 07:03:16;;;;;;;;;;;;;;;9.11;91.22;101021.72;105761;1258;124981;-76
2023/10/23 07:05:43;;;;;;;;;;;;;;;9.17;91.25;101021.59;105826;1256;60625;-75
2023/10/23 07:08:09;;;;;;;;;;;;;;;9.22;91.38;101015.63;105733;1256;124857;-75
2023/10/23 07:10:36;;;;;;;;;;;;;;;9.29;91.44;101013.76;105979;1258;74821;-75
2023/10/23 07:13:03;;;;;;;;;;;;;;;9.36;91.48;101016.45;105842;1260;66678;-75
2023/10/23 07:15:32;;;;;;;;;;;;;;;9.43;91.66;101018.63;105788;1254;124530;-75
2023/10/23 07:17:59;;;;;;;;;;;;;;;9.50;91.66;101022.19;105737;1257;59287;-76
2023/10/23 07:20:26;;;;;;;;;;;;;;;9.57;91.65;101024.16;105782;1254;124855;-75
2023/10/23 07:22:52;;;;;;;;;;;;;;;9.63;91.75;101026.13;106053;1255;74704;-75
2023/10/23 07:25:19;;;;;;;;;;;;;;;9.70;91.64;101030.71;106131;1256;65032;-75
2023/10/23 07:27:46;;;;;;;;;;;;;;;9.77;91.81;101027.45;105927;1258;124668;-75
2023/10/23 07:30:13;;;;;;;;;;;;;;;9.86;91.82;101029.48;105874;1258;61256;-75
2023/10/23 07:32:40;;;;;;;;;;;;;;;9.94;91.81;101031.50;108803;1255;125319;-75
2023/10/23 07:35:10;;;;;;;;;;;;;;;10.03;91.81;101033.72;106048;1254;73291;-74
2023/10/23 07:37:37;;;;;;;;;;;;;;;10.12;91.75;101036.11;106015;1254;65616;-75
2023/10/23 07:40:05;;;;;;;;;;;;;;;10.19;91.77;101037.56;105762;1258;125386;-76
2023/10/23 07:42:34;;;;;;;;;;;;;;;10.28;91.73;101039.77;105807;1264;61288;-75
2023/10/23 07:45:03;;;;;;;;;;;;;;;10.36;91.75;101039.50;105812;1256;125221;-75
2023/10/23 07:47:30;;;;;;;;;;;;;;;10.43;91.49;101045.68;105895;1260;73155;-76
2023/10/23 07:49:56;;;;;;;;;;;;;;;10.50;91.50;101042.04;105790;1261;64978;-76
2023/10/23 07:52:23;;;;;;;;;;;;;;;10.58;91.41;101048.77;105785;1256;126072;-75
2023/10/23 07:54:49;;;;;;;;;;;;;;;10.64;91.39;101049.64;105764;1256;61260;-75
2023/10/23 07:57:16;;;;;;;;;;;;;;;10.71;91.20;101043.69;105833;1256;125982;-75
2023/10/23 07:59:43;;;;;;;;;;;;;;;10.77;91.04;101047.21;105879;1256;75066;-77
2023/10/23 08:02:09;;;;;;;;;;;;;;;10.84;91.03;101044.60;105735;1256;125010;-76
2023/10/23 08:04:36;;;;;;;;;;;;;;;10.91;91.09;101042.33;105833;1256;71351;-75
2023/10/23 08:07:03;;;;;;;;;;;;;;;10.98;90.90;101041.84;105927;1258;61167;-81
2023/10/23 08:09:29;;;;;;;;;;;;;;;11.04;90.70;101047.63;106069;1258;125027;-82
2023/10/23 08:11:56;;;;;;;;;;;;;;;11.12;90.62;101048.00;105948;1255;74859;-82
2023/10/23 08:14:22;;;;;;;;;;;;;;;11.18;90.53;101053.11;105744;1257;125396;-75
2023/10/23 08:16:52;;;;;;;;;;;;;;;11.24;90.32;101056.62;105824;1256;73501;-75
2023/10/23 08:19:19;;;;;;;;;;;;;;;11.30;90.07;101057.84;105820;1255;61270;-74
2023/10/23 08:21:46;;;;;;;;;;;;;;;11.37;89.82;101059.23;105743;1258;124995;-74
2023/10/23 08:24:13;;;;;;;;;;;;;;;11.42;89.68;101062.00;105781;1258;73493;-76
2023/10/23 08:26:40;;;;;;;;;;;;;;;11.48;89.42;101061.98;105721;1258;125411;-75
2023/10/23 08:29:07;;;;;;;;;;;;;;;11.55;89.26;101063.38;105990;1256;70448;-75
2023/10/23 08:31:33;;;;;;;;;;;;;;;11.61;89.16;101059.34;105963;1256;61360;-75
2023/10/23 08:34:00;;;;;;;;;;;;;;;11.69;88.92;101063.75;105788;1258;124917;-75
2023/10/23 08:36:27;;;;;;;;;;;;;;;11.76;88.69;101067.27;105781;1260;73900;-75
2023/10/23 08:38:53;;;;;;;;;;;;;;;11.81;88.34;101067.73;105847;1259;124894;-82
2023/10/23 08:41:20;;;;;;;;;;;;;;;11.87;88.28;101066.67;105940;1257;71728;-82
2023/10/23 08:43:46;;;;;;;;;;;;;;;11.94;88.01;101068.44;105960;1257;61368;-82
2023/10/23 08:46:14;;;;;;;;;;;;;;;11.96;87.46;101068.51;105854;1254;124947;-82
2023/10/23 08:48:40;;;;;;;;;;;;;;;11.97;86.96;101069.75;105939;1255;74679;-82
2023/10/23 08:51:07;;;;;;;;;;;;;;;11.98;86.75;101069.24;105839;1258;125523;-81
2023/10/23 08:53:34;;;;;;;;;;;;;;;12.00;86.62;101070.54;105869;1261;72676;-82
2023/10/23 08:56:02;;;;;;;;;;;;;;;12.06;86.77;101075.23;105985;1259;61232;-82
2023/10/23 08:58:29;;;;;;;;;;;;;;;12.10;86.46;101076.77;105896;1259;124921;-82
2023/10/23 09:00:56;;;;;;;;;;;;;;;12.14;86.42;101074.22;105879;1255;73385;-82
2023/10/23 09:03:23;;;;;;;;;;;;;;;12.19;86.35;101077.47;105823;1267;124709;-81
2023/10/23 09:05:49;;;;;;;;;;;;;;;12.22;86.04;101077.03;106076;1262;71422;-81
2023/10/23 09:08:18;;;;;;;;;;;;;;;12.24;86.02;101078.66;105868;1259;125248;-81
2023/10/23 09:11:00;;;;;;;;;;;;;;;12.25;85.69;101079.05;106019;1260;61166;-81
2023/10/23 09:13:32;;;;;;;;;;;;;;;12.25;85.47;101077.80;105921;1264;74501;-82
2023/10/23 09:15:58;;;;;;;;;;;;;;;12.29;85.32;101082.29;105829;1262;125233;-81
2023/10/23 09:18:25;;;;;;;;;;;;;;;12.30;85.08;101084.96;106015;1260;72655;-81
2023/10/23 09:20:51;;;;;;;;;;;;;;;12.31;84.88;101080.23;105776;1259;158840;-81
2023/10/23 09:23:18;;;;;;;;;;;;;;;12.32;84.53;101087.47;105970;1260;61271;-82
2023/10/23 09:25:45;;;;;;;;;;;;;;;12.33;84.43;101090.31;105882;1259;75913;-82
2023/10/23 09:28:12;;;;;;;;;;;;;;;12.36;84.29;101092.13;105734;1260;125284;-81
2023/10/23 09:30:39;;;;;;;;;;;;;;;12.39;84.34;101083.23;106037;1258;73201;-81
2023/10/23 09:33:05;;;;;;;;;;;;;;;12.44;84.36;101085.98;105935;1260;125184;-81
2023/10/23 09:35:32;;;;;;;;;;;;;;;12.48;84.26;101085.55;106153;1260;61193;-81
2023/10/23 09:37:59;;;;;;;;;;;;;;;12.53;84.01;101083.72;105950;1260;73635;-81
2023/10/23 09:40:25;;;;;;;;;;;;;;;12.58;83.92;101086.31;105903;1259;124748;-81
2023/10/23 09:42:52;;;;;;;;;;;;;;;12.64;84.01;101084.86;105869;1257;71417;-81
2023/10/23 09:45:18;;;;;;;;;;;;;;;12.70;84.00;101080.77;105843;1257;124754;-81
2023/10/23 09:47:45;;;;;;;;;;;;;;;12.73;83.64;101081.88;105990;1257;61443;-81
2023/10/23 09:50:12;;;;;;;;;;;;;;;12.75;83.46;101080.00;105878;1260;125271;-81
2023/10/23 09:52:38;;;;;;;;;;;;;;;12.78;83.40;101083.39;106008;1260;66216;-82
2023/10/23 09:55:05;;;;;;;;;;;;;;;12.81;83.06;101080.81;105988;1257;61361;-81
2023/10/23 09:57:35;;;;;;;;;;;;;;;12.84;83.10;101080.70;106025;1260;125947;-82
2023/10/23 10:00:13;;;;;;;;;;;;;;;12.89;82.87;101074.63;106019;1254;61275;-81
2023/10/23 10:02:40;;;;;;;;;;;;;;;12.93;82.54;101073.14;105884;1260;125126;-81
2023/10/23 10:05:08;;;;;;;;;;;;;;;12.95;82.44;101072.83;106029;1260;66039;-81
2023/10/23 10:07:44;;;;;;;;;;;;;;;13.01;82.35;101075.59;106007;1258;72688;-83
2023/10/23 10:10:11;;;;;;;;;;;;;;;13.06;82.25;101071.81;105872;1257;124611;-82
2023/10/23 10:12:38;;;;;;;;;;;;;;;13.12;82.08;101074.91;106056;1268;61285;-81
2023/10/23 10:15:11;;;;;;;;;;;;;;;13.17;81.92;101072.91;105893;1261;124426;-81
2023/10/23 10:17:39;;;;;;;;;;;;;;;13.25;81.93;101075.37;106100;1260;66456;-82
2023/10/23 10:20:09;;;;;;;;;;;;;;;13.29;81.51;101073.84;105837;1260;124512;-81
2023/10/23 10:22:36;;;;;;;;;;;;;;;13.31;81.31;101072.14;106094;1254;61190;-82
2023/10/23 10:25:04;;;;;;;;;;;;;;;13.35;80.91;101069.24;106032;1260;61360;-82
2023/10/23 10:27:31;;;;;;;;;;;;;;;13.36;80.60;101066.62;105850;1260;124856;-82
2023/10/23 10:30:07;;;;;;;;;;;;;;;13.39;80.69;101064.19;105924;1263;65040;-82
2023/10/23 10:32:34;;;;;;;;;;;;;;;13.45;80.82;101062.88;105681;1260;124850;-82
2023/10/23 10:35:03;;;;;;;;;;;;;;;13.50;80.74;101059.10;105940;1254;61244;-82
2023/10/23 10:37:30;;;;;;;;;;;;;;;13.55;80.62;101060.78;106126;1260;61675;-82
2023/10/23 10:39:57;;;;;;;;;;;;;;;13.65;80.78;101055.48;105925;1261;124890;-82
2023/10/23 10:42:24;;;;;;;;;;;;;;;13.76;80.77;101051.45;106015;1258;65832;-81
2023/10/23 10:44:54;;;;;;;;;;;;;;;13.85;80.37;101050.17;105855;1257;124885;-83
2023/10/23 10:47:29;;;;;;;;;;;;;;;13.91;79.91;101053.27;105907;1260;61285;-81
2023/10/23 10:49:56;;;;;;;;;;;;;;;13.98;79.78;101057.09;105922;1255;61575;-81
2023/10/23 10:52:27;;;;;;;;;;;;;;;14.11;79.73;101054.65;106012;1260;124588;-83
2023/10/23 10:54:55;;;;;;;;;;;;;;;14.23;79.33;101054.13;106034;1254;66372;-83
2023/10/23 10:57:22;;;;;;;;;;;;;;;14.32;79.05;101057.60;106774;1256;124726;-83
2023/10/23 10:59:54;;;;;;;;;;;;;;;14.48;78.98;101059.42;106021;1255;61254;-83
2023/10/23 11:02:21;;;;;;;;;;;;;;;14.70;78.67;101059.05;106014;1260;124855;-82
2023/10/23 11:04:48;;;;;;;;;;;;;;;14.96;78.35;101057.24;106154;1260;74709;-82
2023/10/23 11:07:15;;;;;;;;;;;;;;;15.20;77.77;101055.40;106632;1254;65259;-80
2023/10/23 11:09:41;;;;;;;;;;;;;;;15.40;77.22;101057.02;106113;1257;124231;-82
2023/10/23 11:12:08;;;;;;;;;;;;;;;15.60;76.92;101054.91;106192;1254;61415;-83
2023/10/23 11:14:34;;;;;;;;;;;;;;;15.71;76.27;101057.31;106101;1254;124373;-81
2023/10/23 11:17:01;;;;;;;;;;;;;;;15.74;75.76;101056.13;106095;1254;61223;-74
2023/10/23 11:19:27;;;;;;;;;;;;;;;15.74;75.38;101058.61;106180;1260;64363;-82
2023/10/23 11:22:07;;;;;;;;;;;;;;;15.69;75.14;101060.48;106065;1258;124624;-82
2023/10/23 11:24:34;;;;;;;;;;;;;;;15.63;74.97;101060.07;106035;1253;61404;-81
2023/10/23 11:27:00;;;;;;;;;;;;;;;15.60;74.73;101061.09;105876;1254;124261;-76
2023/10/23 11:29:27;;;;;;;;;;;;;;;15.57;74.29;101063.37;106105;1254;74680;-75
2023/10/23 11:31:53;;;;;;;;;;;;;;;15.53;74.15;101067.23;105982;1258;66537;-76
2023/10/23 11:34:21;;;;;;;;;;;;;;;15.54;74.10;101068.66;105970;1258;125526;-76
2023/10/23 11:36:49;;;;;;;;;;;;;;;15.59;74.07;101064.82;105882;1259;59648;-76
2023/10/23 11:39:17;;;;;;;;;;;;;;;15.68;73.91;101062.26;105802;1260;125569;-77
2023/10/23 11:41:54;;;;;;;;;;;;;;;15.84;73.88;101059.40;105973;1254;73410;-74
2023/10/23 11:44:20;;;;;;;;;;;;;;;16.02;73.72;101058.14;106466;1254;125321;-75
2023/10/23 11:46:47;;;;;;;;;;;;;;;16.22;73.57;101059.34;105819;1258;70720;-75
2023/10/23 11:49:17;;;;;;;;;;;;;;;16.38;73.15;101057.31;105916;1254;61139;-75
2023/10/23 11:51:44;;;;;;;;;;;;;;;16.53;72.93;101057.94;105944;1254;125325;-75
2023/10/23 11:54:11;;;;;;;;;;;;;;;16.74;72.68;101054.66;105963;1258;74597;-76
2023/10/23 11:56:37;;;;;;;;;;;;;;;16.93;72.39;101057.79;105844;1257;124367;-76
2023/10/23 11:59:04;;;;;;;;;;;;;;;17.05;72.01;101057.66;105877;1260;71172;-76
2023/10/23 12:01:31;;;;;;;;;;;;;;;17.07;71.44;101061.39;106002;1254;61323;-75
2023/10/23 12:03:57;;;;;;;;;;;;;;;17.10;71.04;101058.73;105913;1258;124164;-74
2023/10/23 12:06:24;;;;;;;;;;;;;;;17.19;70.70;101060.37;105914;1254;72358;-76
2023/10/23 12:08:50;;;;;;;;;;;;;;;17.24;70.13;101060.20;105885;1259;125192;-75
2023/10/23 12:11:17;;;;;;;;;;;;;;;17.21;69.67;101058.41;105908;1254;71381;-75
2023/10/23 12:13:44;;;;;;;;;;;;;;;17.14;69.33;101053.25;105894;1260;61292;-76
2023/10/23 12:16:10;;;;;;;;;;;;;;;17.13;69.28;101056.61;105927;1257;124628;-76
2023/10/23 12:18:37;;;;;;;;;;;;;;;17.13;69.24;101058.21;106014;1257;74965;-74
2023/10/23 12:21:06;;;;;;;;;;;;;;;17.07;68.94;101061.58;105864;1254;124505;-75
2023/10/23 12:23:33;;;;;;;;;;;;;;;16.88;68.42;101056.35;105950;1254;72205;-75
2023/10/23 12:25:59;;;;;;;;;;;;;;;16.61;68.17;101064.19;105971;1257;62828;-76
2023/10/23 12:28:26;;;;;;;;;;;;;;;16.31;68.06;101067.18;105844;1257;124267;-76